createdAt,value
2022-10-06T00:00:49.602Z,41.85
2022-10-06T00:03:38.509Z,42.03
2022-10-06T00:06:11.862Z,42.18
2022-10-06T00:08:44.834Z,42.31
2022-10-06T00:11:18.027Z,42.31
2022-10-06T00:13:50.106Z,42.38
2022-10-06T00:16:24.617Z,42.51
2022-10-06T00:18:57.062Z,42.55
2022-10-06T00:21:29.920Z,42.59
2022-10-06T00:24:01.971Z,42.64
2022-10-06T00:26:35.117Z,42.67
2022-10-06T00:29:07.170Z,42.53
2022-10-06T00:31:39.309Z,42.82
2022-10-06T00:34:11.463Z,42.67
2022-10-06T00:36:44.092Z,42.88
2022-10-06T00:39:16.490Z,42.91
2022-10-06T00:41:48.590Z,42.91
2022-10-06T00:44:20.699Z,43.10
2022-10-06T00:46:54.155Z,43.34
2022-10-06T00:49:30.034Z,43.26
2022-10-06T00:52:04.317Z,43.39
2022-10-06T00:54:37.321Z,43.69
2022-10-06T00:57:09.734Z,43.55
2022-10-06T00:59:42.549Z,43.59
2022-10-06T01:02:17.114Z,43.64
2022-10-06T01:04:51.400Z,43.73
2022-10-06T01:07:24.445Z,43.73
2022-10-06T01:09:58.125Z,43.82
2022-10-06T01:12:32.501Z,43.70
2022-10-06T01:15:05.099Z,43.64
2022-10-06T01:17:37.352Z,43.58
2022-10-06T01:20:12.367Z,43.67
2022-10-06T01:22:46.353Z,43.60
2022-10-06T01:25:19.730Z,43.64
2022-10-06T01:27:53.942Z,43.65
2022-10-06T01:30:30.161Z,43.79
2022-10-06T01:33:02.558Z,43.76
2022-10-06T01:35:34.703Z,43.78
2022-10-06T01:38:06.978Z,43.77
2022-10-06T01:40:39.310Z,43.59
2022-10-06T01:43:11.533Z,43.81
2022-10-06T01:45:43.666Z,43.90
2022-10-06T01:48:15.818Z,43.99
2022-10-06T01:50:48.054Z,43.97
2022-10-06T01:53:20.838Z,44.03
2022-10-06T01:55:52.924Z,44.09
2022-10-06T01:58:25.311Z,44.12
2022-10-06T02:00:57.650Z,44.24
2022-10-06T02:03:29.881Z,44.36
2022-10-06T02:06:02.262Z,44.24
2022-10-06T02:08:34.734Z,44.22
2022-10-06T02:11:10.435Z,44.47
2022-10-06T02:13:42.807Z,44.51
2022-10-06T02:16:16.042Z,44.61
2022-10-06T02:18:48.381Z,44.59
2022-10-06T02:21:22.778Z,44.61
2022-10-06T02:23:54.919Z,44.82
2022-10-06T02:26:27.494Z,44.67
2022-10-06T02:28:59.580Z,44.81
2022-10-06T02:31:31.821Z,44.85
2022-10-06T02:34:04.134Z,44.87
2022-10-06T02:36:36.219Z,44.99
2022-10-06T02:39:08.489Z,45.03
2022-10-06T02:41:40.813Z,45.11
2022-10-06T02:44:12.935Z,45.07
2022-10-06T02:46:47.163Z,45.08
2022-10-06T02:49:19.398Z,45.00
2022-10-06T02:51:51.770Z,45.16
2022-10-06T02:54:24.130Z,45.21
2022-10-06T02:56:56.761Z,45.19
2022-10-06T02:59:28.961Z,45.16
2022-10-06T03:02:01.229Z,45.29
2022-10-06T03:04:33.472Z,45.26
2022-10-06T03:07:05.619Z,45.22
2022-10-06T03:09:37.707Z,45.31
2022-10-06T03:12:09.867Z,45.28
2022-10-06T03:14:41.928Z,45.43
2022-10-06T03:17:14.340Z,45.60
2022-10-06T03:19:46.652Z,45.59
2022-10-06T03:22:18.805Z,45.59
2022-10-06T03:24:50.960Z,45.62
2022-10-06T03:27:23.092Z,45.64
2022-10-06T03:29:55.185Z,45.65
2022-10-06T03:32:27.451Z,45.76
2022-10-06T03:34:59.521Z,45.74
2022-10-06T03:37:32.799Z,45.78
2022-10-06T03:40:05.300Z,45.70
2022-10-06T03:42:37.464Z,45.68
2022-10-06T03:45:11.206Z,45.84
2022-10-06T03:47:43.324Z,45.99
2022-10-06T03:50:15.721Z,46.00
2022-10-06T03:52:51.491Z,46.03
2022-10-06T03:55:23.644Z,46.06
2022-10-06T03:57:57.541Z,46.14
2022-10-06T04:00:29.778Z,46.18
2022-10-06T04:03:02.073Z,46.26
2022-10-06T04:05:34.422Z,46.22
2022-10-06T04:08:06.529Z,46.18
2022-10-06T04:10:38.787Z,46.26
2022-10-06T04:13:10.951Z,46.34
2022-10-06T04:15:43.045Z,46.30
2022-10-06T04:18:16.089Z,46.37
2022-10-06T04:20:48.357Z,46.36
2022-10-06T04:23:21.687Z,46.41
2022-10-06T04:25:55.964Z,46.32
2022-10-06T04:28:28.666Z,46.49
2022-10-06T04:31:02.529Z,46.60
2022-10-06T04:33:34.832Z,46.64
2022-10-06T04:36:08.329Z,46.66
2022-10-06T04:38:40.412Z,46.77
2022-10-06T04:41:14.978Z,46.88
2022-10-06T04:43:48.069Z,46.79
2022-10-06T04:46:42.071Z,46.88
2022-10-06T04:49:19.580Z,47.00
2022-10-06T04:51:52.418Z,47.06
2022-10-06T04:54:24.614Z,47.19
2022-10-06T04:56:56.794Z,47.19
2022-10-06T04:59:42.681Z,47.31
2022-10-06T05:02:14.826Z,47.35
2022-10-06T05:04:46.975Z,47.34
2022-10-06T05:07:19.120Z,47.39
2022-10-06T05:09:51.241Z,47.44
2022-10-06T05:12:23.337Z,47.44
2022-10-06T05:14:55.893Z,47.55
2022-10-06T05:17:28.048Z,47.59
2022-10-06T05:20:00.115Z,47.56
2022-10-06T05:22:32.416Z,47.65
2022-10-06T05:25:04.561Z,47.65
2022-10-06T05:27:36.673Z,47.64
2022-10-06T05:30:10.455Z,47.75
2022-10-06T05:32:42.594Z,47.81
2022-10-06T05:35:14.668Z,47.92
2022-10-06T05:37:46.812Z,47.92
2022-10-06T05:40:19.144Z,47.98
2022-10-06T05:42:51.476Z,48.04
2022-10-06T05:45:23.583Z,48.16
2022-10-06T05:47:56.937Z,48.08
2022-10-06T05:50:29.156Z,48.19
2022-10-06T05:53:01.321Z,48.16
2022-10-06T05:55:33.368Z,48.20
2022-10-06T05:58:05.478Z,48.23
2022-10-06T06:00:37.767Z,48.33
2022-10-06T06:03:13.364Z,48.25
2022-10-06T06:05:46.018Z,48.33
2022-10-06T06:08:16.539Z,48.53
2022-10-06T06:10:48.685Z,48.55
2022-10-06T06:13:24.209Z,48.51
2022-10-06T06:16:02.206Z,48.52
2022-10-06T06:18:35.457Z,48.59
2022-10-06T06:21:09.613Z,48.61
2022-10-06T06:23:46.711Z,48.57
2022-10-06T06:26:20.125Z,48.54
2022-10-06T06:28:53.295Z,48.52
2022-10-06T06:31:28.165Z,48.53
2022-10-06T06:34:02.404Z,48.63
2022-10-06T06:36:37.007Z,48.37
2022-10-06T06:39:10.895Z,48.36
2022-10-06T06:41:46.133Z,48.29
2022-10-06T06:44:18.306Z,48.04
2022-10-06T06:46:50.535Z,48.17
2022-10-06T06:49:22.722Z,48.22
2022-10-06T06:51:54.920Z,48.29
2022-10-06T06:54:27.866Z,48.28
2022-10-06T06:57:00.573Z,48.43
2022-10-06T06:59:34.263Z,48.39
2022-10-06T07:02:06.414Z,48.36
2022-10-06T07:04:38.529Z,48.31
2022-10-06T07:07:11.254Z,48.28
2022-10-06T07:09:43.525Z,48.34
2022-10-06T07:12:15.649Z,48.36
2022-10-06T07:15:05.477Z,48.28
2022-10-06T07:17:55.089Z,48.30
2022-10-06T07:20:44.946Z,48.44
2022-10-06T07:23:45.557Z,48.48
2022-10-06T07:26:17.793Z,48.35
2022-10-06T07:28:49.969Z,48.42
2022-10-06T07:31:22.172Z,48.34
2022-10-06T07:33:55.207Z,48.29
2022-10-06T07:36:27.472Z,48.26
2022-10-06T07:38:59.661Z,48.17
2022-10-06T07:41:32.794Z,48.33
2022-10-06T07:44:07.990Z,48.08
2022-10-06T07:46:40.696Z,48.23
2022-10-06T07:49:13.548Z,48.07
2022-10-06T07:51:44.088Z,48.21
2022-10-06T07:54:16.269Z,48.24
2022-10-06T07:56:48.357Z,48.25
2022-10-06T07:59:20.516Z,48.26
2022-10-06T08:01:53.202Z,48.04
2022-10-06T08:04:25.508Z,47.97
2022-10-06T08:06:58.544Z,48.08
2022-10-06T08:09:30.895Z,47.98
2022-10-06T08:12:23.125Z,48.09
2022-10-06T08:14:55.641Z,47.97
2022-10-06T08:17:28.209Z,47.88
2022-10-06T08:20:00.382Z,47.72
2022-10-06T08:22:32.722Z,47.63
2022-10-06T08:25:07.033Z,47.62
2022-10-06T08:27:44.318Z,47.63
2022-10-06T08:30:16.895Z,47.49
2022-10-06T08:32:47.706Z,47.28
2022-10-06T08:35:21.592Z,47.24
2022-10-06T08:37:54.513Z,47.25
2022-10-06T08:40:27.658Z,47.03
2022-10-06T08:43:02.510Z,46.91
2022-10-06T08:45:38.882Z,46.71
2022-10-06T08:48:15.227Z,46.64
2022-10-06T08:50:54.423Z,46.61
2022-10-06T08:53:35.858Z,46.46
2022-10-06T08:56:18.345Z,46.28
2022-10-06T08:58:54.980Z,46.26
2022-10-06T09:01:30.032Z,46.12
2022-10-06T09:04:05.257Z,46.01
2022-10-06T09:06:47.585Z,46.02
2022-10-06T09:09:29.304Z,45.71
2022-10-06T09:12:12.582Z,45.44
2022-10-06T09:14:48.186Z,45.16
2022-10-06T09:17:24.519Z,44.98
2022-10-06T09:20:00.443Z,44.99
2022-10-06T09:22:34.669Z,44.75
2022-10-06T09:25:20.235Z,44.77
2022-10-06T09:27:55.548Z,44.87
2022-10-06T09:30:28.868Z,44.12
2022-10-06T09:33:03.837Z,43.96
2022-10-06T09:35:36.630Z,43.86
2022-10-06T09:38:11.765Z,43.71
2022-10-06T09:40:51.243Z,43.51
2022-10-06T09:43:27.358Z,42.84
2022-10-06T09:46:22.924Z,42.75
2022-10-06T09:49:10.370Z,43.06
2022-10-06T09:51:42.657Z,42.27
2022-10-06T09:54:16.301Z,42.03
2022-10-06T09:56:51.365Z,42.06
2022-10-06T09:59:24.714Z,41.58
2022-10-06T10:01:57.832Z,41.35
2022-10-06T10:04:32.098Z,41.57
2022-10-06T10:07:25.540Z,41.04
2022-10-06T10:10:19.303Z,40.87
2022-10-06T10:12:55.772Z,40.85
2022-10-06T10:15:31.820Z,40.69
2022-10-06T10:18:05.567Z,40.50
2022-10-06T10:20:40.393Z,40.08
2022-10-06T10:23:30.075Z,39.80
2022-10-06T10:26:17.751Z,39.50
2022-10-06T10:29:19.989Z,38.96
2022-10-06T10:32:04.253Z,38.99
2022-10-06T10:35:00.442Z,38.98
2022-10-06T10:37:40.760Z,38.70
2022-10-06T10:40:21.295Z,38.58
2022-10-06T10:42:57.006Z,38.27
2022-10-06T10:45:34.154Z,38.01
2022-10-06T10:48:12.727Z,37.74
2022-10-06T10:50:52.018Z,37.25
2022-10-06T10:53:30.597Z,37.02
2022-10-06T10:56:04.249Z,36.47
2022-10-06T10:58:38.821Z,36.50
2022-10-06T11:01:20.424Z,36.54
2022-10-06T11:03:56.835Z,36.39
2022-10-06T11:06:51.620Z,35.92
2022-10-06T11:09:26.681Z,35.84
2022-10-06T11:12:06.481Z,35.73
2022-10-06T11:14:54.605Z,35.13
2022-10-06T11:17:44.510Z,34.76
2022-10-06T11:20:44.240Z,34.87
2022-10-06T11:23:30.706Z,34.37
2022-10-06T11:26:09.899Z,34.47
2022-10-06T11:28:46.517Z,33.98
2022-10-06T11:31:26.854Z,33.94
2022-10-06T11:34:01.849Z,33.75
2022-10-06T11:36:44.733Z,33.59
2022-10-06T11:39:25.337Z,33.20
2022-10-06T11:42:01.661Z,32.95
2022-10-06T11:44:38.769Z,33.23
2022-10-06T11:47:16.398Z,32.30
2022-10-06T11:49:56.047Z,32.65
2022-10-06T11:52:55.371Z,32.71
2022-10-06T11:55:29.143Z,32.16
2022-10-06T12:01:04.909Z,31.72
2022-10-06T12:04:16.918Z,31.32
2022-10-06T12:07:06.998Z,31.25
2022-10-06T12:09:52.350Z,31.32
2022-10-06T12:13:01.767Z,31.12
2022-10-06T12:19:03.881Z,30.36
2022-10-06T12:21:45.841Z,30.09
2022-10-06T12:24:39.298Z,30.25
2022-10-06T12:27:29.289Z,30.25
2022-10-06T12:30:17.005Z,30.44
2022-10-06T12:32:53.156Z,30.37
2022-10-06T12:35:32.125Z,30.27
2022-10-06T12:38:08.012Z,30.15
2022-10-06T12:40:57.746Z,29.80
2022-10-06T12:43:45.580Z,29.60
2022-10-06T12:46:36.204Z,29.72
2022-10-06T12:49:44.479Z,29.22
2022-10-06T12:52:49.588Z,29.02
2022-10-06T12:55:43.118Z,28.85
2022-10-06T12:58:21.685Z,28.64
2022-10-06T13:00:53.879Z,28.67
2022-10-06T13:03:28.420Z,28.47
2022-10-06T13:06:02.623Z,28.04
2022-10-06T13:08:36.427Z,28.40
2022-10-06T13:11:17.113Z,28.11
2022-10-06T13:13:53.925Z,28.44
2022-10-06T13:16:29.072Z,28.32
2022-10-06T13:19:02.294Z,28.12
2022-10-06T13:21:34.603Z,28.01
2022-10-06T13:24:07.060Z,27.96
2022-10-06T13:26:39.399Z,28.05
2022-10-06T13:29:21.434Z,27.88
2022-10-06T13:31:55.643Z,27.74
2022-10-06T13:34:32.018Z,27.75
2022-10-06T13:37:04.764Z,27.81
2022-10-06T13:39:37.130Z,27.83
2022-10-06T13:42:15.452Z,27.71
2022-10-06T13:44:52.058Z,27.76
2022-10-06T13:47:25.769Z,27.39
2022-10-06T13:50:02.254Z,27.37
2022-10-06T13:52:37.718Z,27.03
2022-10-06T13:55:18.225Z,27.29
2022-10-06T13:57:50.792Z,26.88
2022-10-06T14:00:25.749Z,26.80
2022-10-06T14:03:11.561Z,27.16
2022-10-06T14:05:45.009Z,27.09
2022-10-06T14:08:24.518Z,27.12
2022-10-06T14:10:58.064Z,27.06
2022-10-06T14:13:32.968Z,27.05
2022-10-06T14:16:06.983Z,26.95
2022-10-06T14:18:42.032Z,26.89
2022-10-06T14:21:28.858Z,26.92
2022-10-06T14:24:05.932Z,26.81
2022-10-06T14:26:41.814Z,26.85
2022-10-06T14:29:14.239Z,26.90
2022-10-06T14:31:47.208Z,26.85
2022-10-06T14:34:20.645Z,26.78
2022-10-06T14:36:55.390Z,26.79
2022-10-06T14:39:29.195Z,26.81
2022-10-06T14:42:01.417Z,26.88
2022-10-06T14:44:31.881Z,26.89
2022-10-06T14:47:04.038Z,26.97
2022-10-06T14:49:37.049Z,26.87
2022-10-06T14:52:10.764Z,27.04
2022-10-06T14:54:43.406Z,27.07
2022-10-06T14:57:15.697Z,26.92
2022-10-06T14:59:47.844Z,27.04
2022-10-06T15:02:20.672Z,27.21
2022-10-06T15:04:53.029Z,27.16
2022-10-06T15:07:42.868Z,27.19
2022-10-06T15:10:14.978Z,27.23
2022-10-06T15:12:47.086Z,27.48
2022-10-06T15:15:19.491Z,27.07
2022-10-06T15:17:52.033Z,27.13
2022-10-06T15:20:24.168Z,27.45
2022-10-06T15:22:56.309Z,27.29
2022-10-06T15:25:46.169Z,27.22
2022-10-06T15:28:36.239Z,27.42
2022-10-06T15:31:08.604Z,27.63
2022-10-06T15:33:39.100Z,27.58
2022-10-06T15:36:19.863Z,27.67
2022-10-06T15:38:52.496Z,27.57
2022-10-06T15:41:25.184Z,27.82
2022-10-06T15:43:58.406Z,27.81
2022-10-06T15:46:33.177Z,28.04
2022-10-06T15:49:07.057Z,27.86
2022-10-06T15:51:45.181Z,27.98
2022-10-06T15:54:20.045Z,27.91
2022-10-06T15:56:53.550Z,27.77
2022-10-06T15:59:26.049Z,27.87
2022-10-06T16:02:00.795Z,28.22
2022-10-06T16:04:46.564Z,28.31
2022-10-06T16:07:20.588Z,28.58
2022-10-06T16:09:53.532Z,28.65
2022-10-06T16:12:28.496Z,28.74
2022-10-06T16:15:00.822Z,28.93
2022-10-06T16:17:33.139Z,29.00
2022-10-06T16:20:05.443Z,29.15
2022-10-06T16:22:37.926Z,28.82
2022-10-06T16:25:11.219Z,29.18
2022-10-06T16:27:43.587Z,29.21
2022-10-06T16:30:16.046Z,29.42
2022-10-06T16:32:48.250Z,29.46
2022-10-06T16:35:20.470Z,29.64
2022-10-06T16:37:52.803Z,29.68
2022-10-06T16:40:24.950Z,29.79
2022-10-06T16:42:57.266Z,29.93
2022-10-06T16:45:27.731Z,29.99
2022-10-06T16:47:59.968Z,30.10
2022-10-06T16:50:32.254Z,30.16
2022-10-06T16:53:04.441Z,30.35
2022-10-06T16:55:36.517Z,30.44
2022-10-06T16:58:09.982Z,30.55
2022-10-06T17:00:42.348Z,30.56
2022-10-06T17:03:14.573Z,30.69
2022-10-06T17:05:46.702Z,30.77
2022-10-06T17:08:18.825Z,30.91
2022-10-06T17:11:01.988Z,31.05
2022-10-06T17:13:34.713Z,31.07
2022-10-06T17:16:09.398Z,31.25
2022-10-06T17:18:41.944Z,31.28
2022-10-06T17:21:39.712Z,31.43
2022-10-06T17:24:05.526Z,31.45
2022-10-06T17:26:39.328Z,31.57
2022-10-06T17:29:16.162Z,31.53
2022-10-06T17:31:49.402Z,31.70
2022-10-06T17:34:24.422Z,31.94
2022-10-06T17:36:59.411Z,31.92
2022-10-06T17:40:15.294Z,32.10
2022-10-06T17:42:47.505Z,32.18
2022-10-06T17:45:21.382Z,32.39
2022-10-06T17:47:53.931Z,32.44
2022-10-06T17:50:26.033Z,32.42
2022-10-06T17:52:58.930Z,32.70
2022-10-06T17:55:31.209Z,32.86
2022-10-06T17:58:03.462Z,32.95
2022-10-06T18:00:35.570Z,32.91
2022-10-06T18:03:09.167Z,33.24
2022-10-06T18:05:41.403Z,33.33
2022-10-06T18:08:13.621Z,33.51
2022-10-06T18:11:09.225Z,33.47
2022-10-06T18:13:41.327Z,33.70
2022-10-06T18:16:19.196Z,33.71
2022-10-06T18:18:53.137Z,33.92
2022-10-06T18:21:27.333Z,34.02
2022-10-06T18:23:59.562Z,33.95
2022-10-06T18:26:31.676Z,34.04
2022-10-06T18:29:03.937Z,34.27
2022-10-06T18:31:36.915Z,34.49
2022-10-06T18:36:10.204Z,34.46
2022-10-06T18:37:04.597Z,34.54
2022-10-06T18:39:36.721Z,34.73
2022-10-06T18:42:11.319Z,34.82
2022-10-06T18:45:01.092Z,35.02
2022-10-06T18:47:50.933Z,35.05
2022-10-06T18:50:23.660Z,35.03
2022-10-06T18:52:56.638Z,35.24
2022-10-06T18:55:29.967Z,35.37
2022-10-06T18:58:02.270Z,35.48
2022-10-06T19:00:34.413Z,35.55
2022-10-06T19:03:07.329Z,35.59
2022-10-06T19:05:39.469Z,35.82
2022-10-06T19:08:12.110Z,35.87
2022-10-06T19:11:04.354Z,36.06
2022-10-06T19:13:37.627Z,36.09
2022-10-06T19:16:10.747Z,36.18
2022-10-06T19:18:42.990Z,36.27
2022-10-06T19:21:15.403Z,36.35
2022-10-06T19:23:47.564Z,36.44
2022-10-06T19:26:22.755Z,36.48
2022-10-06T19:28:55.014Z,36.76
2022-10-06T19:31:27.607Z,36.77
2022-10-06T19:34:00.971Z,36.88
2022-10-06T19:36:33.678Z,37.01
2022-10-06T19:39:07.528Z,37.15
2022-10-06T19:41:57.565Z,37.24
2022-10-06T19:44:30.152Z,37.26
2022-10-06T19:47:02.356Z,37.49
2022-10-06T19:49:34.839Z,37.52
2022-10-06T19:52:06.333Z,37.53
2022-10-06T19:54:39.608Z,37.77
2022-10-06T19:57:12.474Z,37.89
2022-10-06T19:59:44.571Z,38.03
2022-10-06T20:02:16.710Z,38.06
2022-10-06T20:04:49.059Z,38.20
2022-10-06T20:07:25.595Z,38.19
2022-10-06T20:09:57.942Z,38.36
2022-10-06T20:12:30.173Z,38.55
2022-10-06T20:15:02.367Z,38.55
2022-10-06T20:17:34.842Z,38.53
2022-10-06T20:20:05.850Z,38.65
2022-10-06T20:22:38.016Z,38.76
2022-10-06T20:25:11.172Z,38.86
2022-10-06T20:27:43.880Z,38.91
2022-10-06T20:30:16.571Z,39.08
2022-10-06T20:32:48.837Z,39.10
2022-10-06T20:35:21.109Z,39.20
2022-10-06T20:37:53.289Z,39.34
2022-10-06T20:40:42.950Z,39.47
2022-10-06T20:43:15.607Z,39.52
2022-10-06T20:45:49.023Z,39.56
2022-10-06T20:48:21.372Z,39.60
2022-10-06T20:50:53.518Z,39.69
2022-10-06T20:53:32.405Z,39.70
2022-10-06T20:56:05.914Z,39.88
2022-10-06T20:58:38.162Z,39.96
2022-10-06T21:01:11.545Z,40.01
2022-10-06T21:03:48.753Z,40.12
2022-10-06T21:06:21.101Z,40.08
2022-10-06T21:08:53.825Z,40.23
2022-10-06T21:11:27.112Z,40.31
2022-10-06T21:13:59.385Z,40.40
2022-10-06T21:16:33.197Z,40.35
2022-10-06T21:19:08.153Z,40.46
2022-10-06T21:21:40.464Z,40.50
2022-10-06T21:24:12.659Z,40.60
2022-10-06T21:26:45.587Z,40.58
2022-10-06T21:29:17.844Z,40.61
2022-10-06T21:31:50.153Z,40.64
2022-10-06T21:34:22.319Z,40.77
2022-10-06T21:36:54.459Z,40.70
2022-10-06T21:39:26.683Z,40.80
2022-10-06T21:41:58.895Z,40.89
2022-10-06T21:44:31.071Z,40.93
2022-10-06T21:47:03.657Z,40.94
2022-10-06T21:49:34.186Z,40.97
2022-10-06T21:52:06.435Z,40.96
2022-10-06T21:54:38.679Z,40.95
2022-10-06T21:57:10.834Z,40.91
2022-10-06T21:59:43.029Z,40.84
2022-10-06T22:02:15.172Z,40.81
2022-10-06T22:04:47.255Z,40.85
2022-10-06T22:07:19.501Z,40.87
2022-10-06T22:09:51.724Z,40.92
2022-10-06T22:12:23.931Z,41.06
2022-10-06T22:14:58.915Z,41.11
2022-10-06T22:17:31.011Z,41.25
2022-10-06T22:20:03.330Z,41.19
2022-10-06T22:22:35.430Z,41.28
2022-10-06T22:25:08.459Z,41.34
2022-10-06T22:27:40.635Z,41.42
2022-10-06T22:30:14.103Z,41.56
2022-10-06T22:32:46.198Z,41.61
2022-10-06T22:35:18.439Z,41.57
2022-10-06T22:37:51.632Z,41.69
2022-10-06T22:40:23.901Z,41.74
2022-10-06T22:42:55.927Z,41.83
2022-10-06T22:45:28.093Z,41.91
2022-10-06T22:48:00.155Z,41.95
2022-10-06T22:50:32.356Z,41.97
2022-10-06T22:53:07.520Z,42.11
2022-10-06T22:55:39.659Z,42.26
2022-10-06T22:58:12.340Z,42.25
2022-10-06T23:00:45.272Z,42.24
2022-10-06T23:03:17.594Z,42.29
2022-10-06T23:05:58.417Z,42.43
2022-10-06T23:08:35.077Z,42.58
2022-10-06T23:11:09.239Z,42.57
2022-10-06T23:13:41.417Z,42.53
2022-10-06T23:16:15.120Z,42.66
2022-10-06T23:18:47.909Z,42.68
2022-10-06T23:21:22.798Z,42.49
2022-10-06T23:23:56.865Z,42.63
2022-10-06T23:26:29.106Z,42.73
2022-10-06T23:29:02.414Z,42.84
2022-10-06T23:31:34.571Z,42.87
2022-10-06T23:34:06.843Z,42.89
2022-10-06T23:36:39.091Z,43.08
2022-10-06T23:39:12.257Z,43.22
2022-10-06T23:41:44.486Z,43.08
2022-10-06T23:44:16.595Z,42.84
2022-10-06T23:46:48.834Z,43.04
2022-10-06T23:49:20.978Z,43.16
2022-10-06T23:51:53.337Z,43.27
2022-10-06T23:54:25.529Z,43.29
2022-10-06T23:56:57.684Z,43.33
2022-10-06T23:59:29.830Z,43.46
